Portada
METAR-TAF:

METAR-TAF

Aeroports :

Toamasina, Madagascar

latitud: 18-07S, longitud: 049-24E, altitud: 5 m

Observació

L'informe es va fer fa 14 minuts, a les 12:00 UTC
Vent 6 kt del Sud-Est
Temperatura 28°C
Humitat 62%
Pressió 1016 hPa
Visibilitat 10 km o més
Escasses núvols a una alçada de 1700 ft
Cel ennuvolat a una alçada de 3300 ft

METAR: FMMT 301200Z 14006KT 9999 FEW017 BKN033 28/20 Q1016

Hora: 15:14 (12:14 UTC)

Pronòstic

L'informe es va fer fa 1 hora i 14 minuts, a les 11:00 UTC
Pronòstic vàlid del 30 a les 12 UTC al 31 a les 12 UTC
Vent 5 kt amb direcció variable
Visibilitat 10 km o més
Núvols disperses a una alçada de 1700 ft, Cumulus congestus.
Cel ennuvolat a una alçada de 3300 ft
Probabilitat 40% :
Temporalment
l' 30 a les 12 UTC al 31 a les 05 UTC
Visibilitat: 4000 m
xàfecs de pluja

TAF: FMMT 301100Z 3012/3112 VRB05KT 9999 SCT017TCU BKN033 PROB40 TEMPO 3012/3105 4000 SHRA

Observacions i pronòstics meteorològics de més de 4000 aeroports (METAR i TAF).

Les estacions disponibles són els punts grocs i vermells al mapa.

Posi el ratolí al punt desitjat per veure el nom de l'estació.

Feu clic per veure les observacions i els pronòstics meteorològics.

Per canviar el mapa: feu clic els botons verds amb una creu de color negre per apropar; al botó verd amb un guió per allunyar la imatge; o en les fletxes verdes per a mapes adjacents.


METAR-TAF: